Aviation Digital Data Service (ADDS)

Output produced by METARs form (0345 UTC 23 November 2017)
found at http://www.aviationweather.gov/adds/metars/
 
ZMUB 230330Z 20002MPS 9999 BKN250 M15/M19 Q1021 NOSIG RMK QFE657.8 71 MOP
TAF COR ZMUB 222241Z 2300/2406 VRB02MPS 6000 SCT100 TXM12/2306Z TNM26/2322Z 
     BECMG 2305/2307 29005MPS 9999 NSW SCT033 SCT100 
     BECMG 2309/2311 VRB02MPS 
     BECMG 2320/2322 6000